createdAt,value
2023-05-18T00:00:45.015Z,99.90
2023-05-18T00:05:50.054Z,99.90
2023-05-18T00:10:53.607Z,99.90
2023-05-18T00:15:57.366Z,99.90
2023-05-18T00:21:02.327Z,99.90
2023-05-18T00:26:05.934Z,99.90
2023-05-18T00:31:09.269Z,99.90
2023-05-18T00:36:14.113Z,99.90
2023-05-18T00:41:17.664Z,99.90
2023-05-18T00:46:21.483Z,99.90
2023-05-18T00:51:26.758Z,99.90
2023-05-18T00:56:34.183Z,99.90
2023-05-18T01:01:43.495Z,99.90
2023-05-18T01:06:48.552Z,99.90
2023-05-18T01:11:59.307Z,99.90
2023-05-18T01:17:10.423Z,99.90
2023-05-18T01:22:29.636Z,99.90
2023-05-18T01:27:37.739Z,99.90
2023-05-18T01:32:43.030Z,99.90
2023-05-18T01:37:46.464Z,99.90
2023-05-18T01:43:00.053Z,99.90
2023-05-18T01:48:04.382Z,99.90
2023-05-18T01:53:13.661Z,99.90
2023-05-18T01:58:21.810Z,99.90
2023-05-18T02:03:25.310Z,99.90
2023-05-18T02:08:29.092Z,99.90
2023-05-18T02:13:33.806Z,99.90
2023-05-18T02:18:37.698Z,99.90
2023-05-18T02:23:41.548Z,99.90
2023-05-18T02:28:46.835Z,99.90
2023-05-18T02:33:50.147Z,99.90
2023-05-18T02:38:53.825Z,99.90
2023-05-18T02:43:58.830Z,99.90
2023-05-18T02:49:03.074Z,99.90
2023-05-18T02:54:07.153Z,99.90
2023-05-18T02:59:15.576Z,99.90
2023-05-18T03:04:21.960Z,99.90
2023-05-18T03:09:29.568Z,99.90
2023-05-18T03:14:35.272Z,99.90
2023-05-18T03:19:39.119Z,99.90
2023-05-18T03:24:43.351Z,99.90
2023-05-18T03:29:53.212Z,99.90
2023-05-18T03:34:57.023Z,99.90
2023-05-18T03:40:10.984Z,99.90
2023-05-18T03:45:16.123Z,99.90
2023-05-18T03:50:21.255Z,99.90
2023-05-18T03:55:25.060Z,99.90
2023-05-18T04:00:31.355Z,99.90
2023-05-18T04:05:34.644Z,99.90
2023-05-18T04:10:38.062Z,99.90
2023-05-18T04:15:43.408Z,99.90
2023-05-18T04:20:47.232Z,99.90
2023-05-18T04:25:50.748Z,99.90
2023-05-18T04:30:56.317Z,99.90
2023-05-18T04:36:05.409Z,99.90
2023-05-18T04:41:09.472Z,99.90
2023-05-18T04:46:16.891Z,99.90
2023-05-18T04:51:21.886Z,99.90
2023-05-18T04:56:25.453Z,99.90
2023-05-18T05:01:30.571Z,99.90
2023-05-18T05:06:34.100Z,99.90
2023-05-18T05:11:37.533Z,97.10
2023-05-18T05:16:42.395Z,94.80
2023-05-18T05:21:45.900Z,87.20
2023-05-18T05:26:49.227Z,81.50
2023-05-18T05:31:54.545Z,76.50
2023-05-18T05:36:58.083Z,79.90
2023-05-18T05:42:01.746Z,81.30
2023-05-18T05:47:08.300Z,75.60
2023-05-18T05:52:11.875Z,74.70
2023-05-18T05:57:16.257Z,68.20
2023-05-18T06:02:21.224Z,72.50
2023-05-18T06:07:24.809Z,72.60
2023-05-18T06:12:28.372Z,74.40
2023-05-18T06:17:33.838Z,69.40
2023-05-18T06:22:38.511Z,64.50
2023-05-18T06:27:55.409Z,64.10
2023-05-18T06:33:29.114Z,62.60
2023-05-18T06:38:33.963Z,63.20
2023-05-18T06:43:37.479Z,61.70
2023-05-18T06:48:55.523Z,61.70
2023-05-18T06:53:58.939Z,57.70
2023-05-18T06:59:03.506Z,57.50
2023-05-18T07:04:08.552Z,62.70
2023-05-18T07:09:12.552Z,59.60
2023-05-18T07:14:16.368Z,58.50
2023-05-18T07:19:21.650Z,56.20
2023-05-18T07:24:25.287Z,56.40
2023-05-18T07:29:29.212Z,56.80
2023-05-18T07:34:33.914Z,52.00
2023-05-18T07:39:39.195Z,52.30
2023-05-18T07:44:42.621Z,49.20
2023-05-18T07:49:47.942Z,51.90
2023-05-18T07:54:51.742Z,52.70
2023-05-18T07:59:55.014Z,51.90
2023-05-18T08:04:59.886Z,52.70
2023-05-18T08:10:03.654Z,51.00
2023-05-18T08:15:08.826Z,51.40
2023-05-18T08:20:13.787Z,55.50
2023-05-18T08:25:17.120Z,57.30
2023-05-18T08:30:21.777Z,60.20
2023-05-18T08:35:27.396Z,58.40
2023-05-18T08:40:36.984Z,57.50
2023-05-18T08:45:42.784Z,59.90
2023-05-18T08:50:51.446Z,54.50
2023-05-18T08:55:55.276Z,60.40
2023-05-18T09:00:59.158Z,56.90
2023-05-18T09:06:04.794Z,52.40
2023-05-18T09:11:08.978Z,55.00
2023-05-18T09:16:12.471Z,51.50
2023-05-18T09:21:18.012Z,52.20
2023-05-18T09:26:22.534Z,54.80
2023-05-18T09:31:27.606Z,53.30
2023-05-18T09:36:34.702Z,51.60
2023-05-18T09:41:42.330Z,48.50
2023-05-18T09:46:45.767Z,51.90
2023-05-18T09:51:51.188Z,54.30
2023-05-18T09:57:08.900Z,57.60
2023-05-18T10:02:15.522Z,58.70
2023-05-18T10:07:22.773Z,54.90
2023-05-18T10:12:26.263Z,51.70
2023-05-18T10:17:33.891Z,54.40
2023-05-18T10:22:40.623Z,55.80
2023-05-18T10:27:45.087Z,57.60
2023-05-18T10:32:49.486Z,55.70
2023-05-18T10:37:57.598Z,55.50
2023-05-18T10:43:03.598Z,55.90
2023-05-18T10:48:11.036Z,47.50
2023-05-18T10:53:17.738Z,48.80
2023-05-18T10:58:25.142Z,50.10
2023-05-18T11:03:30.108Z,45.40
2023-05-18T11:08:41.809Z,45.30
2023-05-18T11:13:48.890Z,46.70
2023-05-18T11:18:52.775Z,51.10
2023-05-18T11:24:23.703Z,50.00
2023-05-18T11:29:32.666Z,51.10
2023-05-18T11:34:39.944Z,45.10
2023-05-18T11:39:59.730Z,49.30
2023-05-18T11:45:08.794Z,53.30
2023-05-18T11:50:12.523Z,52.50
2023-05-18T11:55:19.765Z,54.40
2023-05-18T12:00:24.848Z,57.30
2023-05-18T12:05:31.737Z,62.50
2023-05-18T12:10:37.551Z,57.20
2023-05-18T12:15:42.356Z,52.60
2023-05-18T12:20:46.948Z,49.50
2023-05-18T12:25:52.487Z,47.80
2023-05-18T12:30:56.717Z,51.40
2023-05-18T12:36:00.200Z,57.40
2023-05-18T12:41:06.600Z,57.00
2023-05-18T12:46:11.315Z,56.80
2023-05-18T12:51:19.132Z,50.70
2023-05-18T12:56:25.677Z,51.70
2023-05-18T13:01:29.157Z,48.70
2023-05-18T13:06:37.290Z,50.70
2023-05-18T13:11:47.526Z,53.40
2023-05-18T13:16:52.813Z,55.20
2023-05-18T13:21:56.873Z,54.40
2023-05-18T13:27:02.422Z,52.00
2023-05-18T13:32:07.554Z,50.90
2023-05-18T13:37:12.233Z,55.50
2023-05-18T13:42:21.187Z,55.60
2023-05-18T13:47:24.794Z,56.80
2023-05-18T13:52:28.616Z,53.00
2023-05-18T13:57:34.151Z,53.50
2023-05-18T14:02:37.842Z,53.10
2023-05-18T14:07:42.526Z,57.00
2023-05-18T14:12:47.492Z,57.40
2023-05-18T14:17:51.215Z,55.40
2023-05-18T14:22:54.717Z,53.80
2023-05-18T14:27:59.433Z,49.70
2023-05-18T14:33:02.645Z,50.80
2023-05-18T14:38:06.319Z,50.00
2023-05-18T14:43:11.270Z,50.00
2023-05-18T14:48:14.771Z,50.90
2023-05-18T14:53:18.202Z,49.50
2023-05-18T14:58:23.004Z,49.70
2023-05-18T15:03:28.246Z,53.70
2023-05-18T15:08:31.951Z,53.60
2023-05-18T15:13:36.908Z,56.10
2023-05-18T15:18:40.344Z,53.80
2023-05-18T15:23:43.705Z,52.60
2023-05-18T15:28:49.309Z,50.80
2023-05-18T15:33:52.776Z,51.50
2023-05-18T15:38:56.590Z,51.60
2023-05-18T15:44:01.933Z,52.20
2023-05-18T15:49:05.418Z,51.20
2023-05-18T15:54:08.952Z,54.30
2023-05-18T15:59:13.689Z,54.70
2023-05-18T16:04:17.206Z,54.50
2023-05-18T16:09:20.638Z,54.60
2023-05-18T16:14:26.028Z,57.20
2023-05-18T16:19:29.637Z,55.10
2023-05-18T16:24:32.979Z,56.00
2023-05-18T16:29:37.741Z,56.20
2023-05-18T16:34:41.281Z,55.90
2023-05-18T16:39:45.217Z,54.90
2023-05-18T16:44:49.908Z,55.60
2023-05-18T16:49:53.565Z,54.90
2023-05-18T16:54:56.984Z,56.60
2023-05-18T17:00:01.919Z,58.00
2023-05-18T17:05:08.385Z,58.10
2023-05-18T17:10:11.860Z,58.00
2023-05-18T17:15:16.595Z,58.30
2023-05-18T17:20:20.070Z,58.00
2023-05-18T17:25:23.614Z,58.70
2023-05-18T17:30:28.930Z,60.10
2023-05-18T17:35:32.579Z,60.00
2023-05-18T17:40:35.848Z,60.80
2023-05-18T17:45:40.690Z,62.00
2023-05-18T17:50:45.546Z,63.00
2023-05-18T17:55:48.964Z,63.30
2023-05-18T18:00:53.786Z,64.20
2023-05-18T18:05:57.217Z,64.20
2023-05-18T18:11:00.845Z,66.20
2023-05-18T18:16:06.546Z,68.30
2023-05-18T18:21:09.921Z,69.50
2023-05-18T18:26:13.553Z,74.40
2023-05-18T18:31:20.744Z,76.40
2023-05-18T18:36:26.369Z,78.80
2023-05-18T18:41:29.990Z,80.10
2023-05-18T18:46:34.836Z,81.90
2023-05-18T18:51:38.241Z,85.20
2023-05-18T18:56:43.956Z,87.50
2023-05-18T19:01:48.801Z,89.30
2023-05-18T19:06:55.179Z,90.30
2023-05-18T19:11:58.832Z,91.80
2023-05-18T19:17:03.737Z,92.80
2023-05-18T19:22:07.421Z,93.20
2023-05-18T19:27:10.843Z,94.70
2023-05-18T19:32:15.602Z,95.70
2023-05-18T19:37:18.966Z,97.00
2023-05-18T19:42:22.340Z,97.60
2023-05-18T19:47:27.371Z,99.00
2023-05-18T19:52:31.352Z,99.80
2023-05-18T19:57:34.774Z,99.90
2023-05-18T20:02:39.641Z,99.90
2023-05-18T20:07:43.011Z,99.00
2023-05-18T20:12:46.928Z,98.60
2023-05-18T20:17:51.772Z,97.50
2023-05-18T20:22:55.137Z,98.00
2023-05-18T20:28:00.784Z,98.30
2023-05-18T20:33:05.630Z,98.30
2023-05-18T20:38:09.620Z,98.30
2023-05-18T20:43:17.917Z,98.20
2023-05-18T20:48:26.892Z,99.00
2023-05-18T20:53:30.331Z,99.40
2023-05-18T20:58:35.527Z,99.90
2023-05-18T21:03:42.553Z,99.90
2023-05-18T21:08:46.003Z,99.90
2023-05-18T21:13:49.407Z,99.90
2023-05-18T21:18:54.917Z,99.90
2023-05-18T21:23:58.428Z,99.90
2023-05-18T21:29:01.886Z,99.90
2023-05-18T21:34:07.033Z,99.90
2023-05-18T21:39:11.147Z,99.90
2023-05-18T21:44:14.990Z,99.90
2023-05-18T21:49:20.277Z,99.90
2023-05-18T21:54:23.699Z,99.90
2023-05-18T21:59:27.334Z,99.90
2023-05-18T22:04:32.365Z,99.90
2023-05-18T22:09:36.490Z,99.90
2023-05-18T22:14:39.901Z,99.90
2023-05-18T22:19:45.688Z,99.90
2023-05-18T22:24:49.837Z,99.90
2023-05-18T22:29:53.246Z,99.90
2023-05-18T22:34:59.927Z,99.90
2023-05-18T22:40:06.099Z,99.90
2023-05-18T22:45:11.584Z,99.90
2023-05-18T22:50:17.011Z,99.90
2023-05-18T22:55:20.540Z,99.90
2023-05-18T23:00:23.861Z,99.90
2023-05-18T23:05:28.782Z,99.90
2023-05-18T23:10:32.967Z,99.90
2023-05-18T23:15:36.520Z,99.90
2023-05-18T23:20:42.034Z,99.90
2023-05-18T23:25:45.371Z,99.90
2023-05-18T23:30:48.715Z,99.90
2023-05-18T23:35:54.516Z,99.90
2023-05-18T23:40:58.851Z,99.90
2023-05-18T23:46:02.901Z,99.90
2023-05-18T23:51:11.082Z,99.90
2023-05-18T23:56:15.149Z,99.90
